Time;durP1;ratioP1;P1;durP2;ratioP2;P2;SDS_P1;SDS_P2;PMS_P1;PMS_P2;Temp;Humidity;BMP_temperature;BMP_pressure;BME280_temperature;BME280_humidity;BME280_pressure;Samples;Min_cycle;Max_cycle;Signal;HPM_P1;HPM_P2
2021/03/25 00:01:06;;;;;;;5.43;3.03;;;21.00;34.20;;;;;;5094229;28;20089;-60
2021/03/25 00:03:31;;;;;;;7.07;2.97;;;21.00;34.20;;;;;;5094454;28;20043;-61
2021/03/25 00:05:57;;;;;;;6.95;3.90;;;21.00;34.20;;;;;;5094342;28;20372;-60
2021/03/25 00:08:24;;;;;;;7.05;3.88;;;21.00;34.20;;;;;;5094071;28;20016;-61
2021/03/25 00:10:50;;;;;;;6.63;3.30;;;20.90;34.20;;;;;;5093674;28;20089;-61
2021/03/25 00:13:17;;;;;;;6.63;3.30;;;21.00;34.20;;;;;;5094188;28;20468;-61
2021/03/25 00:15:43;;;;;;;6.05;3.33;;;21.00;34.20;;;;;;5094018;28;20157;-61
2021/03/25 00:18:11;;;;;;;6.57;3.00;;;20.90;34.20;;;;;;5094183;28;20085;-60
2021/03/25 00:20:37;;;;;;;6.95;3.42;;;21.00;34.30;;;;;;5093967;28;20074;-60
2021/03/25 00:23:03;;;;;;;8.15;3.53;;;20.90;34.30;;;;;;5093840;28;20032;-60
2021/03/25 00:25:31;;;;;;;6.03;3.30;;;20.90;34.30;;;;;;5093918;28;20106;-60
2021/03/25 00:27:57;;;;;;;7.43;3.83;;;20.90;34.20;;;;;;5093784;28;20027;-60
2021/03/25 00:30:27;;;;;;;6.18;3.15;;;20.90;34.30;;;;;;5093704;28;20379;-60
2021/03/25 00:32:52;;;;;;;8.10;3.33;;;20.90;34.20;;;;;;5094473;28;20055;-60
2021/03/25 00:35:18;;;;;;;7.95;3.72;;;20.90;34.30;;;;;;5100722;28;20475;-60
2021/03/25 00:37:43;;;;;;;5.80;3.15;;;20.90;34.30;;;;;;5092892;28;20022;-60
2021/03/25 00:40:11;;;;;;;6.55;3.33;;;20.80;34.30;;;;;;5093982;28;20476;-60
2021/03/25 00:42:38;;;;;;;7.80;3.38;;;20.80;34.30;;;;;;5093517;28;20043;-60
2021/03/25 00:45:06;;;;;;;7.32;3.50;;;20.80;34.30;;;;;;5093671;28;20404;-60
2021/03/25 00:47:32;;;;;;;7.07;3.88;;;20.80;34.30;;;;;;5093361;28;20031;-61
2021/03/25 00:49:57;;;;;;;8.13;3.63;;;20.80;34.30;;;;;;5093309;28;20024;-60
2021/03/25 00:52:23;;;;;;;8.68;3.53;;;20.80;34.30;;;;;;5093492;28;20023;-60
2021/03/25 00:54:49;;;;;;;7.32;3.38;;;20.80;34.30;;;;;;5093415;28;20024;-60
2021/03/25 00:57:14;;;;;;;7.53;3.47;;;20.80;34.30;;;;;;5093424;28;20032;-60
2021/03/25 00:59:40;;;;;;;7.13;3.55;;;20.80;34.30;;;;;;5093743;28;20024;-60
2021/03/25 01:02:05;;;;;;;7.45;3.22;;;20.80;34.30;;;;;;5093670;28;20024;-60
2021/03/25 01:04:31;;;;;;;7.15;3.55;;;20.80;34.30;;;;;;5093481;28;20089;-60
2021/03/25 01:06:56;;;;;;;7.30;3.70;;;20.70;34.30;;;;;;5093367;28;20020;-60
2021/03/25 01:09:24;;;;;;;7.57;3.80;;;20.80;34.30;;;;;;5093248;28;20027;-60
2021/03/25 01:11:50;;;;;;;6.95;3.55;;;20.70;34.30;;;;;;5093220;28;20395;-60
2021/03/25 01:14:20;;;;;;;6.40;3.30;;;20.70;34.30;;;;;;5093206;28;20020;-61
2021/03/25 01:16:47;;;;;;;6.35;3.60;;;20.70;34.30;;;;;;5093397;28;20031;-60
2021/03/25 01:19:18;;;;;;;6.35;3.67;;;20.80;34.30;;;;;;5093274;28;20024;-60
2021/03/25 01:21:45;;;;;;;6.85;4.07;;;20.70;34.30;;;;;;5093100;28;20097;-60
2021/03/25 01:24:11;;;;;;;7.65;3.90;;;20.70;34.30;;;;;;5095748;28;20020;-60
2021/03/25 01:26:37;;;;;;;8.13;3.88;;;20.70;34.30;;;;;;5097297;28;20039;-60
2021/03/25 01:29:04;;;;;;;6.72;3.55;;;20.70;34.30;;;;;;5097666;28;20016;-60
2021/03/25 01:31:30;;;;;;;8.38;4.13;;;20.70;34.30;;;;;;5097327;28;20062;-60
2021/03/25 01:33:56;;;;;;;7.18;3.83;;;20.70;34.30;;;;;;5097347;28;20028;-60
2021/03/25 01:36:22;;;;;;;7.88;4.30;;;20.60;34.30;;;;;;5097167;28;20075;-60
2021/03/25 01:38:48;;;;;;;7.55;3.75;;;20.70;34.30;;;;;;5097326;28;20107;-60
2021/03/25 01:41:14;;;;;;;7.07;3.60;;;20.70;34.30;;;;;;5097144;28;20058;-60
2021/03/25 01:43:43;;;;;;;9.13;3.92;;;20.60;34.30;;;;;;5097974;28;20058;-60
2021/03/25 01:46:15;;;;;;;8.23;4.05;;;20.70;34.30;;;;;;5099633;28;20016;-60
2021/03/25 01:48:43;;;;;;;7.35;3.65;;;20.60;34.30;;;;;;5103460;28;20027;-60
2021/03/25 01:51:35;;;;;;;7.45;3.40;;;20.60;34.30;;;;;;5097376;28;20056;-60
2021/03/25 01:54:14;;;;;;;7.97;3.70;;;20.60;34.30;;;;;;5096803;28;20357;-60
2021/03/25 01:57:02;;;;;;;6.53;3.28;;;20.60;34.40;;;;;;5096771;28;20032;-59
2021/03/25 01:59:55;;;;;;;7.72;3.78;;;20.60;34.30;;;;;;5096812;28;20375;-59
2021/03/25 02:02:49;;;;;;;7.10;3.80;;;20.60;34.40;;;;;;5096617;28;20460;-60
2021/03/25 02:05:24;;;;;;;9.40;4.25;;;20.60;34.40;;;;;;5096358;28;20474;-60
2021/03/25 02:08:04;;;;;;;6.97;3.60;;;20.60;34.40;;;;;;5096739;28;20400;-59
2021/03/25 02:10:39;;;;;;;7.75;3.95;;;20.60;34.40;;;;;;5096400;28;20035;-59
2021/03/25 02:13:24;;;;;;;7.47;3.40;;;20.50;34.40;;;;;;5096469;28;20032;-60
2021/03/25 02:16:05;;;;;;;8.27;3.65;;;20.60;34.40;;;;;;5096572;28;20092;-61
2021/03/25 02:18:59;;;;;;;7.20;4.05;;;20.50;34.40;;;;;;5099815;28;20395;-60
2021/03/25 02:22:03;;;;;;;6.20;3.20;;;20.50;34.40;;;;;;5102805;28;20040;-60
2021/03/25 02:24:59;;;;;;;6.90;3.60;;;20.60;34.40;;;;;;5099379;28;20549;-60
2021/03/25 02:27:30;;;;;;;8.13;4.05;;;20.50;34.40;;;;;;5096355;28;20057;-60
2021/03/25 02:30:03;;;;;;;8.20;4.35;;;20.50;34.40;;;;;;5102773;28;20024;-60
2021/03/25 02:32:33;;;;;;;7.55;4.13;;;20.50;34.40;;;;;;5099220;28;20024;-60
2021/03/25 02:35:04;;;;;;;7.28;3.38;;;20.50;34.40;;;;;;5096223;28;20104;-60
2021/03/25 02:37:33;;;;;;;6.97;4.43;;;20.50;34.40;;;;;;5095436;28;20031;-59
2021/03/25 02:40:07;;;;;;;7.85;4.05;;;20.50;34.40;;;;;;5094738;28;20114;-60
2021/03/25 02:42:55;;;;;;;5.80;2.88;;;20.50;34.40;;;;;;5095715;28;20530;-60
2021/03/25 02:45:26;;;;;;;7.47;3.60;;;20.50;34.40;;;;;;5095925;28;20020;-61
2021/03/25 02:47:56;;;;;;;5.97;3.67;;;20.50;34.40;;;;;;5095750;28;20543;-60
2021/03/25 02:50:28;;;;;;;7.82;4.18;;;20.50;34.40;;;;;;5096074;28;20410;-60
2021/03/25 02:53:05;;;;;;;8.65;4.57;;;20.50;34.40;;;;;;5095666;28;20043;-60
2021/03/25 02:55:31;;;;;;;8.10;4.03;;;20.50;34.40;;;;;;5095682;28;20107;-60
2021/03/25 02:58:08;;;;;;;7.05;3.30;;;20.50;34.40;;;;;;5096099;28;20401;-60
2021/03/25 03:00:48;;;;;;;6.65;3.50;;;20.50;34.40;;;;;;5096161;28;20054;-60
2021/03/25 03:03:22;;;;;;;5.88;3.45;;;20.50;34.40;;;;;;5095802;28;20040;-60
2021/03/25 03:05:51;;;;;;;7.22;4.00;;;20.50;34.40;;;;;;5095727;28;20082;-60
2021/03/25 03:08:28;;;;;;;8.65;4.10;;;20.50;34.40;;;;;;5095546;28;20038;-60
2021/03/25 03:11:01;;;;;;;7.88;3.80;;;20.50;34.40;;;;;;5095349;28;20028;-60
2021/03/25 03:13:31;;;;;;;6.47;3.40;;;20.50;34.40;;;;;;5095510;28;20059;-60
2021/03/25 03:16:11;;;;;;;6.50;3.70;;;20.50;34.40;;;;;;5095349;28;20021;-60
2021/03/25 03:18:41;;;;;;;7.55;3.85;;;20.50;34.40;;;;;;5095184;28;20036;-60
2021/03/25 03:21:18;;;;;;;7.70;3.92;;;20.50;34.40;;;;;;5094883;28;20051;-60
2021/03/25 03:23:44;;;;;;;7.50;4.15;;;20.50;34.40;;;;;;5095388;28;20049;-60
2021/03/25 03:26:17;;;;;;;8.45;3.65;;;20.50;34.40;;;;;;5094908;28;20107;-61
2021/03/25 03:28:47;;;;;;;6.38;3.45;;;20.40;34.40;;;;;;5095236;28;20379;-61
2021/03/25 03:31:19;;;;;;;7.10;3.72;;;20.50;34.40;;;;;;5094707;28;20032;-60
2021/03/25 03:33:50;;;;;;;8.23;4.35;;;20.50;34.50;;;;;;5094778;28;20027;-61
2021/03/25 03:36:22;;;;;;;6.90;3.70;;;20.50;34.50;;;;;;5094573;28;20024;-60
2021/03/25 03:39:02;;;;;;;6.45;3.65;;;20.40;34.50;;;;;;5094820;28;20475;-60
2021/03/25 03:41:33;;;;;;;7.82;3.55;;;20.40;34.50;;;;;;5094302;28;20487;-60
2021/03/25 03:44:02;;;;;;;6.07;3.55;;;20.40;34.50;;;;;;5094805;28;20027;-60
2021/03/25 03:46:29;;;;;;;7.50;3.85;;;20.40;34.50;;;;;;5093923;28;20024;-60
2021/03/25 03:49:21;;;;;;;8.30;4.15;;;20.40;34.50;;;;;;5094814;28;20032;-60
2021/03/25 03:52:04;;;;;;;6.32;3.60;;;20.40;34.50;;;;;;5094527;28;20081;-60
2021/03/25 03:54:30;;;;;;;6.95;4.03;;;20.50;34.50;;;;;;5094322;28;20031;-60
2021/03/25 03:57:20;;;;;;;7.13;3.50;;;20.40;34.50;;;;;;5094490;28;20048;-60
2021/03/25 03:59:51;;;;;;;7.28;3.75;;;20.40;34.50;;;;;;5094244;28;20414;-60
2021/03/25 04:02:56;;;;;;;6.70;3.47;;;20.40;34.50;;;;;;5094163;28;20032;-60
2021/03/25 04:05:41;;;;;;;7.30;3.58;;;20.40;34.50;;;;;;5094411;28;20026;-60
2021/03/25 04:08:21;;;;;;;7.13;3.58;;;20.40;34.50;;;;;;5094347;28;20103;-61
2021/03/25 04:10:59;;;;;;;7.57;3.67;;;20.40;34.50;;;;;;5094160;28;20020;-60
2021/03/25 04:13:30;;;;;;;8.18;4.28;;;20.40;34.50;;;;;;5094414;28;20020;-61
2021/03/25 04:15:55;;;;;;;7.38;3.70;;;20.40;34.50;;;;;;5094134;28;20032;-61
2021/03/25 04:18:34;;;;;;;7.93;3.83;;;20.40;34.60;;;;;;5092862;28;20024;-61
2021/03/25 04:21:07;;;;;;;6.13;3.40;;;20.40;34.50;;;;;;5094039;28;20564;-61
2021/03/25 04:23:36;;;;;;;6.22;3.58;;;20.40;34.50;;;;;;5093781;28;20024;-61
2021/03/25 04:26:11;;;;;;;8.85;3.85;;;20.40;34.50;;;;;;5094175;28;20127;-61
2021/03/25 04:28:46;;;;;;;7.88;3.42;;;20.40;34.50;;;;;;5094001;28;20043;-61
2021/03/25 04:31:11;;;;;;;7.88;3.80;;;20.40;34.50;;;;;;5094054;28;20020;-61
2021/03/25 04:33:39;;;;;;;7.18;3.50;;;20.40;34.50;;;;;;5093574;28;20147;-61
2021/03/25 04:36:17;;;;;;;8.23;4.30;;;20.40;34.60;;;;;;5093524;28;20024;-61
2021/03/25 04:38:44;;;;;;;6.57;3.42;;;20.40;34.50;;;;;;5093769;28;20034;-60
2021/03/25 04:41:12;;;;;;;6.53;3.65;;;20.40;34.60;;;;;;5093523;28;20024;-60
2021/03/25 04:43:38;;;;;;;5.68;3.17;;;20.40;34.50;;;;;;5093584;28;20027;-60
2021/03/25 04:46:27;;;;;;;8.50;3.90;;;20.40;34.50;;;;;;5094028;28;20054;-60
2021/03/25 04:49:02;;;;;;;6.55;3.53;;;20.30;34.60;;;;;;5099579;28;20051;-60
2021/03/25 04:51:28;;;;;;;7.35;3.72;;;20.40;34.60;;;;;;5094036;28;20020;-59
2021/03/25 04:54:12;;;;;;;6.55;3.83;;;20.40;34.60;;;;;;5093485;28;20600;-61
2021/03/25 04:56:39;;;;;;;7.20;3.50;;;20.40;34.60;;;;;;5093518;28;20013;-60
2021/03/25 04:59:06;;;;;;;7.55;3.65;;;20.30;34.60;;;;;;5093578;28;20440;-60
2021/03/25 05:01:33;;;;;;;6.50;3.33;;;20.30;34.60;;;;;;5093132;28;20040;-60
2021/03/25 05:04:03;;;;;;;7.35;3.85;;;20.30;34.60;;;;;;5093416;28;20032;-60
2021/03/25 05:06:36;;;;;;;6.63;3.45;;;20.30;34.60;;;;;;5093604;28;20043;-60
2021/03/25 05:09:03;;;;;;;6.47;3.75;;;20.30;34.60;;;;;;5093326;28;20521;-60
2021/03/25 05:11:28;;;;;;;6.93;3.92;;;20.30;34.60;;;;;;5093374;28;20064;-61
2021/03/25 05:13:58;;;;;;;6.63;3.15;;;20.40;34.60;;;;;;5093391;28;20051;-61
2021/03/25 05:16:42;;;;;;;6.68;3.35;;;20.40;34.60;;;;;;5092817;28;20029;-61
2021/03/25 05:19:16;;;;;;;7.47;3.58;;;20.40;34.60;;;;;;5093118;28;20157;-60
2021/03/25 05:22:11;;;;;;;6.45;3.30;;;20.40;34.50;;;;;;5092808;28;20047;-61
2021/03/25 05:24:39;;;;;;;6.18;3.15;;;20.40;34.50;;;;;;5093080;28;20426;-60
2021/03/25 05:27:11;;;;;;;6.68;3.40;;;20.50;34.50;;;;;;5093088;28;20150;-60
2021/03/25 05:29:39;;;;;;;7.22;3.60;;;20.50;34.50;;;;;;5093182;28;20020;-61
2021/03/25 05:32:07;;;;;;;7.70;3.05;;;20.50;34.40;;;;;;5093299;28;20024;-61
2021/03/25 05:34:36;;;;;;;6.72;3.60;;;20.50;34.40;;;;;;5092979;28;20477;-60
2021/03/25 05:37:02;;;;;;;7.13;3.53;;;20.50;34.40;;;;;;5093200;28;20060;-60
2021/03/25 05:39:32;;;;;;;6.00;3.35;;;20.60;34.40;;;;;;5094806;28;20391;-60
2021/03/25 05:42:33;;;;;;;6.30;3.58;;;20.60;34.40;;;;;;5095245;28;20040;-60
2021/03/25 05:45:20;;;;;;;6.97;3.70;;;20.60;34.40;;;;;;5093007;28;20047;-61
2021/03/25 05:48:14;;;;;;;6.90;3.33;;;20.60;34.40;;;;;;5093009;28;20384;-61
2021/03/25 05:50:48;;;;;;;5.90;3.08;;;20.70;34.40;;;;;;5092827;28;20495;-60
2021/03/25 05:53:35;;;;;;;7.30;3.30;;;20.70;34.30;;;;;;5093120;28;20028;-60
2021/03/25 05:56:26;;;;;;;7.55;3.58;;;20.70;34.40;;;;;;5093016;28;20464;-60
2021/03/25 05:59:01;;;;;;;7.05;3.60;;;20.70;34.40;;;;;;5092673;28;20491;-61
2021/03/25 06:01:26;;;;;;;7.60;4.07;;;20.70;34.40;;;;;;5093371;28;20038;-61
2021/03/25 06:04:36;;;;;;;7.45;3.22;;;20.70;34.30;;;;;;5093545;28;20102;-60
2021/03/25 06:07:10;;;;;;;6.68;3.10;;;20.80;34.30;;;;;;5029981;28;20025;-61
2021/03/25 06:09:49;;;;;;;7.47;4.05;;;20.80;34.30;;;;;;5031500;28;20033;-60
2021/03/25 06:12:45;;;;;;;6.50;3.47;;;20.80;34.30;;;;;;5071499;28;20023;-60
2021/03/25 06:15:54;;;;;;;6.63;3.50;;;20.80;34.30;;;;;;5096494;28;20074;-60
2021/03/25 06:18:59;;;;;;;6.55;3.63;;;20.90;34.30;;;;;;5096795;28;20024;-60
2021/03/25 06:21:45;;;;;;;6.20;3.15;;;20.80;34.30;;;;;;5095971;28;20177;-60
2021/03/25 06:24:16;;;;;;;6.85;3.60;;;20.90;34.30;;;;;;5096406;28;20032;-61
2021/03/25 06:27:01;;;;;;;6.45;3.40;;;20.90;34.30;;;;;;5096515;28;20036;-61
2021/03/25 06:29:29;;;;;;;6.22;3.30;;;20.90;34.30;;;;;;5095969;28;20016;-61
2021/03/25 06:32:20;;;;;;;6.82;3.45;;;20.90;34.30;;;;;;5096060;28;20034;-61
2021/03/25 06:34:52;;;;;;;5.20;3.05;;;21.00;34.30;;;;;;5096066;28;20050;-61
2021/03/25 06:37:38;;;;;;;6.22;3.53;;;21.00;34.20;;;;;;5095999;28;20028;-61
2021/03/25 06:40:28;;;;;;;7.22;3.90;;;21.00;34.20;;;;;;5095994;28;20423;-61
2021/03/25 06:43:14;;;;;;;5.63;2.97;;;21.00;34.30;;;;;;5095850;28;20042;-60
2021/03/25 06:45:47;;;;;;;6.50;3.30;;;21.00;34.30;;;;;;5095797;28;20103;-61
2021/03/25 06:48:19;;;;;;;6.57;3.60;;;21.00;34.20;;;;;;5095788;28;20440;-60
2021/03/25 06:50:51;;;;;;;5.97;3.28;;;21.00;34.20;;;;;;5096040;28;20082;-61
2021/03/25 06:53:26;;;;;;;9.90;3.50;;;21.00;34.20;;;;;;5095572;28;20024;-61
2021/03/25 06:56:06;;;;;;;6.90;3.78;;;21.00;34.20;;;;;;5095617;28;20135;-60
2021/03/25 06:58:36;;;;;;;6.82;3.38;;;21.10;34.20;;;;;;5095944;28;20024;-60
2021/03/25 07:01:10;;;;;;;6.03;2.92;;;21.10;34.20;;;;;;5098691;28;20024;-60
2021/03/25 07:03:37;;;;;;;6.55;3.08;;;21.10;34.20;;;;;;5098498;28;20123;-60
2021/03/25 07:06:03;;;;;;;6.45;3.10;;;21.10;34.20;;;;;;5100217;28;20551;-60
2021/03/25 07:08:31;;;;;;;7.45;3.65;;;21.10;34.20;;;;;;5097356;28;20028;-60
2021/03/25 07:11:02;;;;;;;7.15;3.58;;;21.10;34.20;;;;;;5096709;28;20488;-60
2021/03/25 07:13:39;;;;;;;6.25;3.40;;;21.10;34.20;;;;;;5100045;28;20101;-60
2021/03/25 07:16:10;;;;;;;6.85;3.40;;;21.20;34.20;;;;;;5096665;28;20024;-60
2021/03/25 07:18:58;;;;;;;8.27;3.50;;;21.20;34.20;;;;;;5095141;28;20078;-60
2021/03/25 07:21:27;;;;;;;6.72;3.10;;;21.20;34.20;;;;;;5093921;28;20042;-60
2021/03/25 07:23:58;;;;;;;6.22;2.92;;;21.20;34.10;;;;;;5095142;28;20032;-60
2021/03/25 07:26:30;;;;;;;6.47;3.40;;;21.20;34.10;;;;;;5094859;28;20032;-60
2021/03/25 07:29:06;;;;;;;6.07;3.17;;;21.20;34.10;;;;;;5094860;28;20107;-60
2021/03/25 07:31:39;;;;;;;6.13;3.38;;;21.20;34.10;;;;;;5094682;28;20410;-60
2021/03/25 07:34:06;;;;;;;6.30;3.35;;;21.20;34.10;;;;;;5094805;28;20031;-60
2021/03/25 07:36:38;;;;;;;6.68;3.22;;;21.20;34.20;;;;;;5094887;28;20052;-60
2021/03/25 07:39:07;;;;;;;6.18;3.08;;;21.30;34.20;;;;;;5094639;28;20480;-60
2021/03/25 07:41:34;;;;;;;6.15;3.13;;;21.30;34.10;;;;;;5094622;28;20032;-60
2021/03/25 07:44:25;;;;;;;7.53;3.72;;;21.30;34.20;;;;;;5093134;28;20533;-60
2021/03/25 07:46:56;;;;;;;8.32;3.45;;;21.30;34.10;;;;;;5094545;28;20032;-60
2021/03/25 07:49:25;;;;;;;6.07;3.38;;;21.30;34.10;;;;;;5092997;28;20570;-60
2021/03/25 07:52:02;;;;;;;7.05;3.75;;;21.30;34.10;;;;;;5094325;28;20098;-60
2021/03/25 07:54:29;;;;;;;5.63;3.22;;;21.40;34.10;;;;;;5094892;28;20107;-60
2021/03/25 07:57:08;;;;;;;6.28;3.20;;;21.40;34.10;;;;;;5094271;28;20024;-60
2021/03/25 07:59:53;;;;;;;6.40;3.35;;;21.40;34.10;;;;;;5094469;28;20016;-60
2021/03/25 08:02:40;;;;;;;7.13;3.22;;;21.40;34.10;;;;;;5094602;28;20297;-60
2021/03/25 08:05:13;;;;;;;10.75;3.30;;;21.40;34.10;;;;;;5094270;28;20028;-60
2021/03/25 08:07:40;;;;;;;8.27;3.15;;;21.50;34.10;;;;;;5092953;28;20042;-60
2021/03/25 08:10:06;;;;;;;8.35;3.13;;;21.40;34.10;;;;;;5094157;28;20044;-60
2021/03/25 08:12:36;;;;;;;5.50;2.88;;;21.50;34.10;;;;;;5094240;28;20068;-60
2021/03/25 08:15:20;;;;;;;7.25;4.03;;;21.50;34.10;;;;;;5093942;28;20020;-60
2021/03/25 08:18:19;;;;;;;7.57;3.25;;;21.50;34.10;;;;;;5094283;28;20020;-62
2021/03/25 08:20:54;;;;;;;5.78;3.20;;;21.50;34.00;;;;;;5093734;28;20040;-61
2021/03/25 08:23:25;;;;;;;6.32;3.25;;;21.50;34.00;;;;;;5092076;28;20063;-60
2021/03/25 08:26:17;;;;;;;6.43;3.10;;;21.50;34.00;;;;;;5092591;28;20024;-61
2021/03/25 08:29:07;;;;;;;7.13;3.38;;;21.50;34.00;;;;;;5092938;28;20103;-61
2021/03/25 08:31:51;;;;;;;6.93;3.47;;;21.50;34.10;;;;;;5092495;28;20035;-61
2021/03/25 08:34:32;;;;;;;6.53;3.17;;;21.50;34.10;;;;;;5093181;28;20024;-61
2021/03/25 08:37:20;;;;;;;7.45;3.75;;;21.50;34.10;;;;;;5092937;28;20119;-60
2021/03/25 08:39:45;;;;;;;6.47;3.50;;;21.50;34.10;;;;;;5093128;28;20099;-61
2021/03/25 08:42:28;;;;;;;6.18;3.08;;;21.50;34.10;;;;;;5092629;28;20123;-61
2021/03/25 08:45:06;;;;;;;6.28;3.80;;;21.50;34.20;;;;;;5100322;28;20050;-61
2021/03/25 08:47:52;;;;;;;9.32;3.47;;;21.60;34.20;;;;;;5101256;28;20024;-61
2021/03/25 08:50:59;;;;;;;7.10;2.90;;;21.60;34.10;;;;;;5074051;28;20488;-62
2021/03/25 08:53:34;;;;;;;7.53;3.53;;;21.60;34.10;;;;;;5072495;28;20060;-62
2021/03/25 08:56:07;;;;;;;8.55;3.80;;;21.60;34.20;;;;;;5093922;28;20025;-63
2021/03/25 08:58:37;;;;;;;7.97;3.50;;;21.70;34.20;;;;;;5089659;28;20027;-62
2021/03/25 09:01:08;;;;;;;7.43;3.30;;;21.70;34.20;;;;;;5093837;28;20028;-62
2021/03/25 09:03:53;;;;;;;9.48;3.00;;;21.70;34.20;;;;;;5101977;28;20036;-61
2021/03/25 09:06:30;;;;;;;8.80;3.63;;;21.80;34.10;;;;;;5092792;28;20096;-62
2021/03/25 09:09:05;;;;;;;9.10;3.28;;;21.80;34.10;;;;;;5091753;28;20039;-60
2021/03/25 09:11:31;;;;;;;7.28;3.47;;;21.90;34.10;;;;;;5108413;28;20055;-62
2021/03/25 09:13:58;;;;;;;7.15;3.10;;;21.90;34.10;;;;;;5113261;28;20420;-60
2021/03/25 09:16:31;;;;;;;6.53;3.08;;;21.90;34.20;;;;;;5113336;28;20019;-61
2021/03/25 09:18:58;;;;;;;7.90;3.60;;;21.80;34.20;;;;;;5113783;28;20057;-62
2021/03/25 09:21:29;;;;;;;8.20;3.30;;;21.80;34.30;;;;;;5092809;28;20540;-63
2021/03/25 09:24:01;;;;;;;8.40;3.72;;;21.80;34.30;;;;;;5099687;28;20113;-63
2021/03/25 09:26:26;;;;;;;6.75;3.45;;;21.90;34.30;;;;;;5091646;28;20017;-62
2021/03/25 09:31:31;;;;;;;6.32;2.97;;;21.90;34.40;;;;;;5091367;28;20384;-62
2021/03/25 09:33:58;;;;;;;7.38;3.40;;;21.90;34.40;;;;;;5092624;28;20105;-63
2021/03/25 09:36:27;;;;;;;6.35;3.42;;;21.90;34.40;;;;;;5092607;28;20023;-63
2021/03/25 09:38:58;;;;;;;6.45;3.38;;;21.90;34.50;;;;;;5092032;28;20028;-63
2021/03/25 09:41:29;;;;;;;9.65;3.35;;;22.00;34.40;;;;;;5090244;28;20024;-63
2021/03/25 09:44:05;;;;;;;6.95;3.83;;;22.00;34.40;;;;;;5091398;28;20024;-63
2021/03/25 09:46:49;;;;;;;7.00;3.05;;;22.00;34.40;;;;;;5095857;28;20099;-62
2021/03/25 09:49:36;;;;;;;5.65;2.70;;;22.00;34.50;;;;;;5095400;28;20062;-63
2021/03/25 09:52:11;;;;;;;10.48;3.63;;;22.00;34.50;;;;;;5094652;28;20485;-62
2021/03/25 09:54:53;;;;;;;15.68;3.40;;;22.00;34.50;;;;;;5096017;28;20051;-63
2021/03/25 09:57:28;;;;;;;7.07;3.30;;;22.00;34.50;;;;;;5093276;28;20024;-62
2021/03/25 09:59:59;;;;;;;9.00;2.90;;;22.00;34.60;;;;;;5100649;28;20024;-62
2021/03/25 10:02:37;;;;;;;8.73;3.13;;;22.00;34.60;;;;;;5094779;28;20024;-62
2021/03/25 10:07:53;;;;;;;10.98;3.85;;;22.00;34.60;;;;;;5098906;28;20024;-61
2021/03/25 10:10:38;;;;;;;7.97;3.33;;;22.00;34.50;;;;;;5116536;28;20109;-61
2021/03/25 10:13:04;;;;;;;7.32;3.40;;;22.00;34.60;;;;;;5115807;28;20420;-62
2021/03/25 10:18:02;;;;;;;8.00;3.35;;;22.10;34.50;;;;;;5111932;28;20027;-61
2021/03/25 10:20:51;;;;;;;6.75;2.90;;;22.10;34.50;;;;;;5100195;28;20499;-61
2021/03/25 10:23:40;;;;;;;8.25;3.72;;;22.20;34.40;;;;;;5095715;28;20115;-61
2021/03/25 10:26:05;;;;;;;7.07;3.30;;;22.20;34.40;;;;;;5095335;28;20024;-61
2021/03/25 10:28:35;;;;;;;7.07;3.45;;;22.20;34.30;;;;;;5101194;28;20020;-61
2021/03/25 10:31:06;;;;;;;8.40;3.42;;;22.20;34.40;;;;;;5115752;28;20035;-62
2021/03/25 10:33:34;;;;;;;9.60;3.67;;;22.20;34.30;;;;;;5115675;28;20024;-62
2021/03/25 10:36:07;;;;;;;8.13;3.70;;;22.30;34.30;;;;;;5114543;28;20035;-62
2021/03/25 10:38:43;;;;;;;8.52;3.42;;;22.30;34.30;;;;;;5115485;28;20027;-62
2021/03/25 10:41:19;;;;;;;7.80;3.50;;;22.30;34.30;;;;;;5116222;28;20109;-62
2021/03/25 10:43:49;;;;;;;9.07;3.50;;;22.30;34.30;;;;;;5115011;28;20043;-61
2021/03/25 10:46:28;;;;;;;8.00;3.28;;;22.30;34.30;;;;;;5113349;28;20055;-62
2021/03/25 10:49:03;;;;;;;6.25;2.90;;;22.30;34.30;;;;;;5113927;28;20031;-62
2021/03/25 10:51:32;;;;;;;8.05;3.40;;;22.30;34.30;;;;;;5116027;28;20024;-62
2021/03/25 10:54:02;;;;;;;8.43;3.50;;;22.30;34.30;;;;;;5095740;28;20024;-61
2021/03/25 10:56:37;;;;;;;7.00;3.72;;;22.30;34.30;;;;;;5097530;28;20050;-60
2021/03/25 10:59:12;;;;;;;9.90;3.90;;;22.40;34.20;;;;;;5093002;28;20494;-62
2021/03/25 11:01:59;;;;;;;7.93;3.72;;;22.20;34.40;;;;;;5105881;28;20023;-61
2021/03/25 11:04:31;;;;;;;8.57;4.05;;;22.30;34.40;;;;;;5095447;28;20126;-61
2021/03/25 11:07:16;;;;;;;7.88;4.00;;;22.30;34.30;;;;;;5093647;28;20055;-60
2021/03/25 11:09:59;;;;;;;8.57;4.10;;;22.40;34.30;;;;;;5094490;28;20024;-62
2021/03/25 11:12:30;;;;;;;7.70;3.50;;;22.40;34.30;;;;;;5094158;28;20016;-63
2021/03/25 11:15:02;;;;;;;7.50;3.65;;;22.50;34.00;;;;;;5094084;28;20464;-63
2021/03/25 11:17:31;;;;;;;8.10;3.50;;;22.50;34.10;;;;;;5095485;28;20399;-62
2021/03/25 11:20:06;;;;;;;7.15;3.50;;;22.50;34.20;;;;;;5093775;28;20054;-62
2021/03/25 11:22:33;;;;;;;7.20;3.28;;;22.50;34.10;;;;;;5094309;28;20040;-62
2021/03/25 11:25:01;;;;;;;10.02;3.78;;;22.50;34.10;;;;;;5094324;28;20464;-63
2021/03/25 11:27:29;;;;;;;11.57;4.10;;;22.50;34.10;;;;;;5093306;28;20018;-62
2021/03/25 11:30:23;;;;;;;7.53;3.33;;;22.50;34.10;;;;;;5094109;28;20023;-62
2021/03/25 11:32:49;;;;;;;8.48;4.05;;;22.50;34.10;;;;;;5094201;28;20476;-64
2021/03/25 11:35:39;;;;;;;11.35;3.30;;;22.50;34.10;;;;;;5095135;28;20024;-64
2021/03/25 11:38:25;;;;;;;10.93;3.80;;;22.60;34.10;;;;;;5093008;28;20483;-62
2021/03/25 11:40:55;;;;;;;8.15;3.47;;;22.60;34.10;;;;;;5084519;28;20024;-63
2021/03/25 11:43:37;;;;;;;10.88;3.33;;;22.60;34.00;;;;;;5101626;28;20139;-63
2021/03/25 11:46:02;;;;;;;9.55;3.35;;;22.70;34.00;;;;;;5095006;28;20468;-62
2021/03/25 11:48:34;;;;;;;9.05;3.60;;;22.70;33.90;;;;;;5093169;28;20035;-63
2021/03/25 11:51:17;;;;;;;8.30;3.50;;;22.70;33.90;;;;;;5094057;28;20032;-63
2021/03/25 11:53:48;;;;;;;8.52;3.10;;;22.80;33.90;;;;;;5094240;28;20020;-62
2021/03/25 11:56:33;;;;;;;8.85;3.22;;;22.80;33.80;;;;;;5093996;28;20024;-62
2021/03/25 11:59:14;;;;;;;10.82;4.07;;;22.90;33.70;;;;;;5093155;28;20119;-62
2021/03/25 12:01:41;;;;;;;7.40;3.15;;;22.90;33.70;;;;;;5092185;28;20068;-62
2021/03/25 12:04:18;;;;;;;9.25;3.55;;;22.90;33.70;;;;;;5092507;28;20036;-63
2021/03/25 12:07:05;;;;;;;8.23;3.03;;;23.00;33.60;;;;;;5072667;28;20498;-61
2021/03/25 12:09:34;;;;;;;10.90;3.60;;;23.00;33.60;;;;;;5072952;28;20455;-62
2021/03/25 12:12:01;;;;;;;6.30;2.92;;;23.10;33.50;;;;;;5073060;28;20124;-61
2021/03/25 12:14:27;;;;;;;7.65;3.42;;;23.10;33.50;;;;;;5073577;28;20032;-62
2021/03/25 12:16:56;;;;;;;6.85;3.00;;;23.20;33.50;;;;;;5071146;28;20102;-62
2021/03/25 12:19:22;;;;;;;7.38;3.45;;;23.20;33.50;;;;;;5072509;28;20031;-63
2021/03/25 12:21:48;;;;;;;8.32;3.53;;;23.10;33.50;;;;;;5072735;28;20045;-64
2021/03/25 12:24:13;;;;;;;7.90;3.30;;;23.10;33.50;;;;;;5073063;28;20081;-63
2021/03/25 12:26:39;;;;;;;7.13;3.40;;;23.20;33.50;;;;;;5072315;28;20051;-63
2021/03/25 12:29:05;;;;;;;6.82;3.25;;;23.20;33.40;;;;;;5072335;28;20036;-63
2021/03/25 12:31:43;;;;;;;6.57;2.95;;;23.30;33.40;;;;;;5072506;28;20158;-63
2021/03/25 12:34:10;;;;;;;8.55;3.13;;;23.30;33.30;;;;;;5072653;28;20396;-63
2021/03/25 12:36:36;;;;;;;7.15;2.78;;;23.40;33.20;;;;;;5073801;28;20053;-63
2021/03/25 12:39:07;;;;;;;8.10;2.45;;;23.40;33.20;;;;;;5075730;28;20104;-63
2021/03/25 12:41:36;;;;;;;6.95;2.90;;;23.40;33.30;;;;;;5072571;28;20036;-63
2021/03/25 12:44:04;;;;;;;7.97;3.55;;;23.40;33.20;;;;;;5073508;28;20036;-63
2021/03/25 12:46:30;;;;;;;6.05;2.53;;;23.50;33.20;;;;;;5076710;28;20024;-64
2021/03/25 12:48:55;;;;;;;6.68;2.80;;;23.50;33.20;;;;;;5075436;28;20031;-65
2021/03/25 12:51:21;;;;;;;7.45;3.25;;;23.50;33.20;;;;;;5073744;28;20051;-64
2021/03/25 12:53:48;;;;;;;8.05;3.30;;;23.40;33.20;;;;;;5072947;28;20028;-63
2021/03/25 12:56:17;;;;;;;6.28;3.03;;;23.50;33.20;;;;;;5072830;28;20387;-64
2021/03/25 12:58:42;;;;;;;6.30;2.80;;;23.50;33.20;;;;;;5072141;28;20074;-64
2021/03/25 13:01:16;;;;;;;8.95;3.47;;;23.50;33.20;;;;;;5072434;28;20036;-64
2021/03/25 13:03:43;;;;;;;7.47;3.03;;;23.40;33.30;;;;;;5072246;28;20032;-64
2021/03/25 13:06:10;;;;;;;10.38;3.13;;;23.40;33.30;;;;;;5072726;28;20100;-65
2021/03/25 13:08:36;;;;;;;7.65;2.85;;;23.40;33.30;;;;;;5072405;28;20104;-64
2021/03/25 13:11:02;;;;;;;8.02;3.10;;;23.30;33.40;;;;;;5072738;28;20028;-65
2021/03/25 13:13:28;;;;;;;10.50;3.20;;;23.30;33.40;;;;;;5072088;28;20476;-66
2021/03/25 13:15:53;;;;;;;7.60;3.08;;;23.20;33.50;;;;;;5072180;28;20290;-65
2021/03/25 13:18:20;;;;;;;7.20;3.55;;;23.10;33.60;;;;;;5071638;28;20530;-64
2021/03/25 13:20:45;;;;;;;6.60;3.20;;;23.00;33.80;;;;;;5076698;28;20048;-65
2021/03/25 13:23:12;;;;;;;8.88;3.60;;;23.00;33.80;;;;;;5076553;28;20036;-62
2021/03/25 13:25:40;;;;;;;9.23;3.40;;;23.00;33.80;;;;;;5074932;28;20459;-63
2021/03/25 13:28:07;;;;;;;8.15;3.28;;;23.00;33.80;;;;;;5075536;28;20464;-61